Pagrindinis puslapis
METAR-TAF:

METAR-TAF

Oro uostai :

Mykolajivas, Ukraina

platuma: 47-03-29N, ilguma: 031-55-15E, Aukštis: 56 m

METAR: trūkstamas

Laikas: 21:39 (19:39 UTC)

Prognozė

Ataskaita buvo paskelbta 32 valandos ir 36 minutes, ne 11:03 UTC
Prognozė galioja nuo 15 metu 12 UTC su 15 metu 21 UTC
Vėjas 10 kt iš Rytų
Matomumas 10 km arba daugiau
Su prošvaistėmis ne aukštis 700 ft
Išsisklaidę debesys ne aukštis 2000 ft, Liūtiniai kamuoliniai debesys.

TAF: UKON 151103Z 1512/1521 10005MPS 9999 BKN007 SCT020CB TX09/1512Z TN01/1521Z

Orai ataskaitas ir orų prognozės (METAR, TAF).

turimą stotys yra geltonos ir raudonos taškus žemėlapyje.

Perkelti pele per norėdami pamatyti stoties vardą.

Tada spustelėkite, norėdami matyti oro stebėjimo ir prognozės.

Norėdami pakeisti žemėlapį: spustelėkite ant žalios mygtukų su juodo kryžiaus žemyn,; žalią mygtuką su brūkšneliu, jei norite nutolinti; arba žalių rodyklių gretimoms žemėlapius.


METAR-TAF: